Aeroporto :







RITROVATECI SU...

 
LOGIN :

Iscrizione | Disclaimer

   EN    FR    IT 

 









Sommario :    VFR   VFR Marginale   IFR   IFR Intensivo   IFR Molto Intensivo
Visibilità : 
Base nubi : 
>= 8 km
>= 3000ft
5 / 8 km
1000 / 3000 ft
1500m / 5 km
500 / 1000 ft
800 / 1500m
200 / 500 ft
< 800m
< 200 ft
Simboli :   Temporali  Nebbia  Neve Forte  Precipitazioni Forti  Vento > 20 kt






- Altitudine del aeroporto : 477 ft
- Codice IATA : YHZ


CYHZ - Halifax Stanfield Int.

ULTIMO METAR :
  • 111900Z 35010KT 15SM FEW038 SCT100 BKN230 07/00 A3014 RMK CU2AC2CI3 SLP213

METARs OBSOLETI :
  • 111800Z 35009KT 15SM SCT028 BKN230 08/01 A3011 RMK CU3CI3 SLP202
  • 111700Z 30009G15KT 280V360 15SM SCT029 BKN230 10/02 A3009 RMK CU4CI3 SLP195

TAF TAF CYHZ
Valido dal 11 a 18 ore il 12 a 18 ore UTC


111738Z 1118/1218 30012KT P6SM SCT030
TEMPO 1118/1121 BKN030
FM112100 34008KT P6SM BKN040
FM120600 11010KT P6SM -RA OVC025
FM120800 10010KT 2SM -RA BR OVC008
FM121000 15015KT 1SM -RA BR OVC002
BECMG 1210/1212 18020G30KT
BECMG 1216/1218 21020G35KT RMK NXT FCST BY 112100Z



MetMap, La meteo Aeronautica in un colpo d'occhio ! - Copyright ORBIFLY Dicembre 2007 - Disclaimer

ORBIFLY MET'MAP TEAM :

Programmazione e sviluppo : Alexandra Zaïnal
Concezione e sviluppo : Baudouin d'Aumeries
Co-Programmazione e sviluppo : Marc-Olivier Méhu
Supporto tecnico e logistico : Manuel Goepfert
Aiuto per la traduzione : Arnaldo La Scala

Contatto : metmap@orbifly.com




FONTI E CREDITI :

   NOAA